createdAt,value
2023-04-09T00:02:36.019Z,25.95
2023-04-09T00:07:37.773Z,27.48
2023-04-09T00:12:39.448Z,25.20
2023-04-09T00:17:41.323Z,26.42
2023-04-09T00:22:43.229Z,25.42
2023-04-09T00:27:44.878Z,26.90
2023-04-09T00:32:46.726Z,26.92
2023-04-09T00:37:48.534Z,27.40
2023-04-09T00:42:51.761Z,26.38
2023-04-09T00:47:53.690Z,25.40
2023-04-09T00:52:56.455Z,28.25
2023-04-09T00:57:58.388Z,29.40
2023-04-09T01:03:01.108Z,29.73
2023-04-09T01:08:17.956Z,28.23
2023-04-09T01:13:31.697Z,26.60
2023-04-09T01:18:50.868Z,26.13
2023-04-09T01:24:19.280Z,27.88
2023-04-09T01:29:24.045Z,25.77
2023-04-09T01:34:27.475Z,31.63
2023-04-09T01:39:30.054Z,28.80
2023-04-09T01:44:32.754Z,27.67
2023-04-09T01:49:36.276Z,27.73
2023-04-09T01:54:37.960Z,28.83
2023-04-09T01:59:39.608Z,28.08
2023-04-09T02:04:46.577Z,30.13
2023-04-09T02:09:48.882Z,31.08
2023-04-09T02:14:52.402Z,30.48
2023-04-09T02:19:54.068Z,32.17
2023-04-09T02:24:55.956Z,29.33
2023-04-09T02:29:57.629Z,29.45
2023-04-09T02:34:59.345Z,30.65
2023-04-09T02:40:01.044Z,30.27
2023-04-09T02:45:02.670Z,31.40
2023-04-09T02:50:06.756Z,30.83
2023-04-09T02:55:10.298Z,32.00
2023-04-09T03:00:12.809Z,28.42
2023-04-09T03:05:14.713Z,32.03
2023-04-09T03:10:16.375Z,31.88
2023-04-09T03:15:18.322Z,29.90
2023-04-09T03:20:20.137Z,30.30
2023-04-09T03:25:21.968Z,33.97
2023-04-09T03:30:27.485Z,32.45
2023-04-09T03:35:30.676Z,31.35
2023-04-09T03:40:36.505Z,30.77
2023-04-09T03:45:38.303Z,28.02
2023-04-09T03:50:53.780Z,27.95
2023-04-09T03:56:04.120Z,30.08
2023-04-09T04:01:06.984Z,31.33
2023-04-09T04:06:16.559Z,31.23
2023-04-09T04:11:26.644Z,34.35
2023-04-09T04:16:30.326Z,33.55
2023-04-09T04:21:32.391Z,33.15
2023-04-09T04:26:36.824Z,33.17
2023-04-09T04:31:38.682Z,33.15
2023-04-09T04:36:40.440Z,31.42
2023-04-09T04:41:42.989Z,34.03
2023-04-09T04:46:49.762Z,35.90
2023-04-09T04:51:51.481Z,37.17
2023-04-09T04:56:53.613Z,38.75
2023-04-09T05:02:11.836Z,36.88
2023-04-09T05:07:24.404Z,35.60
2023-04-09T05:12:32.016Z,36.03
2023-04-09T05:17:34.493Z,36.95
2023-04-09T05:22:36.451Z,35.58
2023-04-09T05:27:39.182Z,35.80
2023-04-09T05:32:41.516Z,36.38
2023-04-09T05:37:43.556Z,37.95
2023-04-09T05:42:46.668Z,34.58
2023-04-09T05:52:58.645Z,32.78
2023-04-09T05:58:07.497Z,33.85
2023-04-09T06:03:09.789Z,35.10
2023-04-09T06:08:12.170Z,38.75
2023-04-09T06:13:14.015Z,37.35
2023-04-09T06:18:16.536Z,35.33
2023-04-09T06:23:18.428Z,38.20
2023-04-09T06:28:20.369Z,37.95
2023-04-09T06:33:22.438Z,34.70
2023-04-09T06:38:24.232Z,33.85
2023-04-09T06:43:26.097Z,32.85
2023-04-09T06:48:28.324Z,31.63
2023-04-09T06:53:29.975Z,29.50
2023-04-09T06:58:31.666Z,39.72
2023-04-09T07:03:33.560Z,36.95
2023-04-09T07:08:35.441Z,33.45
2023-04-09T07:13:37.316Z,36.95
2023-04-09T07:18:40.299Z,35.65
2023-04-09T07:23:42.556Z,35.70
2023-04-09T07:28:44.329Z,35.50
2023-04-09T07:33:46.214Z,36.00
2023-04-09T07:38:50.465Z,34.45
2023-04-09T07:43:52.277Z,35.13
2023-04-09T07:48:54.491Z,34.15
2023-04-09T07:53:56.424Z,38.17
2023-04-09T07:58:58.417Z,37.95
2023-04-09T08:04:00.657Z,35.75
2023-04-09T08:09:03.284Z,35.53
2023-04-09T08:14:06.324Z,38.88
2023-04-09T08:19:09.480Z,37.55
2023-04-09T08:24:12.055Z,38.38
2023-04-09T08:29:15.527Z,37.15
2023-04-09T08:34:21.039Z,36.92
2023-04-09T08:39:22.781Z,41.17
2023-04-09T08:44:27.889Z,39.00
2023-04-09T08:49:29.745Z,39.60
2023-04-09T08:54:32.281Z,41.20
2023-04-09T08:59:38.000Z,43.80
2023-04-09T09:04:50.911Z,44.65
2023-04-09T09:09:53.568Z,45.92
2023-04-09T09:14:55.405Z,44.58
2023-04-09T09:19:57.757Z,48.05
2023-04-09T09:24:59.510Z,45.70
2023-04-09T09:30:01.543Z,45.47
2023-04-09T09:35:08.469Z,43.55
2023-04-09T09:40:10.795Z,42.92
2023-04-09T09:45:19.606Z,49.03
2023-04-09T09:50:28.546Z,48.95
2023-04-09T09:55:43.462Z,47.63
2023-04-09T10:00:47.272Z,46.63
2023-04-09T10:05:50.040Z,44.33
2023-04-09T10:10:52.806Z,44.33
2023-04-09T10:16:56.962Z,46.40
2023-04-09T10:22:05.805Z,46.60
2023-04-09T10:27:14.280Z,47.42
2023-04-09T10:42:35.431Z,46.22
2023-04-09T10:47:39.653Z,46.90
2023-04-09T10:52:42.398Z,47.92
2023-04-09T10:57:44.210Z,46.40
2023-04-09T11:03:06.654Z,50.38
2023-04-09T11:08:10.707Z,48.67
2023-04-09T11:13:13.956Z,46.65
2023-04-09T11:18:20.883Z,46.58
2023-04-09T11:23:23.776Z,50.85
2023-04-09T11:28:26.438Z,46.58
2023-04-09T11:33:34.649Z,46.25
2023-04-09T11:38:37.210Z,45.28
2023-04-09T11:43:38.940Z,41.83
2023-04-09T11:48:40.699Z,44.40
2023-04-09T11:53:42.327Z,42.47
2023-04-09T11:58:48.267Z,43.33
2023-04-09T12:03:56.373Z,43.88
2023-04-09T12:08:59.410Z,40.92
2023-04-09T12:14:05.340Z,43.53
2023-04-09T12:19:08.714Z,42.60
2023-04-09T12:24:10.456Z,37.15
2023-04-09T12:29:14.036Z,41.60
2023-04-09T12:34:16.395Z,39.13
2023-04-09T12:39:18.252Z,37.95
2023-04-09T12:44:20.013Z,39.25
2023-04-09T12:49:21.692Z,38.35
2023-04-09T12:54:23.455Z,39.10
2023-04-09T12:59:25.263Z,35.70
2023-04-09T13:04:27.059Z,36.95
2023-04-09T13:09:28.815Z,36.28
2023-04-09T13:14:30.797Z,39.60
2023-04-09T13:19:32.728Z,36.25
2023-04-09T13:24:38.244Z,36.50
2023-04-09T13:29:40.101Z,36.47
2023-04-09T13:34:41.762Z,34.33
2023-04-09T13:39:44.870Z,32.60
2023-04-09T13:44:46.799Z,33.10
2023-04-09T13:49:48.555Z,27.65
2023-04-09T13:54:50.326Z,25.95
2023-04-09T13:59:51.994Z,30.38
2023-04-09T14:04:53.743Z,37.13
2023-04-09T14:09:55.440Z,45.30
2023-04-09T14:14:57.175Z,47.35
2023-04-09T14:19:59.163Z,48.85
2023-04-09T14:25:00.781Z,46.90
2023-04-09T14:30:03.594Z,47.88
2023-04-09T14:35:06.364Z,45.80
2023-04-09T14:40:08.737Z,42.67
2023-04-09T14:45:11.067Z,38.97
2023-04-09T14:50:12.979Z,36.92
2023-04-09T14:55:15.643Z,32.60
2023-04-09T15:00:17.328Z,23.98
2023-04-09T15:05:19.215Z,23.52
2023-04-09T15:10:21.005Z,20.52
2023-04-09T15:15:22.890Z,19.92
2023-04-09T15:20:24.622Z,20.73
2023-04-09T15:25:26.255Z,18.20
2023-04-09T15:30:27.929Z,23.30
2023-04-09T15:35:29.711Z,22.00
2023-04-09T15:40:32.000Z,17.95
2023-04-09T15:45:33.737Z,18.95
2023-04-09T15:50:35.617Z,19.55
2023-04-09T15:55:37.340Z,19.35
2023-04-09T16:00:39.004Z,16.42
2023-04-09T16:05:40.695Z,18.33
2023-04-09T16:10:42.393Z,22.27
2023-04-09T16:15:45.423Z,26.35
2023-04-09T16:20:47.304Z,21.10
2023-04-09T16:25:49.498Z,22.73
2023-04-09T16:30:51.138Z,23.20
2023-04-09T16:35:52.859Z,21.67
2023-04-09T16:40:54.972Z,22.92
2023-04-09T16:45:57.151Z,25.55
2023-04-09T16:50:58.892Z,23.50
2023-04-09T16:56:00.760Z,23.15
2023-04-09T17:01:02.436Z,20.88
2023-04-09T17:06:04.930Z,23.15
2023-04-09T17:11:06.946Z,23.48
2023-04-09T17:16:09.372Z,21.40
2023-04-09T17:21:12.410Z,22.33
2023-04-09T17:26:16.866Z,20.88
2023-04-09T17:31:19.213Z,23.13
2023-04-09T17:36:21.350Z,21.63
2023-04-09T17:41:24.066Z,22.20
2023-04-09T17:46:25.855Z,20.45
2023-04-09T17:51:27.758Z,19.55
2023-04-09T17:56:29.374Z,42.50
2023-04-09T18:01:31.053Z,18.27
2023-04-09T18:06:32.924Z,19.08
2023-04-09T18:11:34.644Z,25.90
2023-04-09T18:16:40.138Z,19.13
2023-04-09T18:21:42.046Z,21.20
2023-04-09T18:26:44.012Z,19.13
2023-04-09T18:31:45.778Z,18.17
2023-04-09T18:36:48.700Z,18.63
2023-04-09T18:41:50.675Z,18.75
2023-04-09T18:46:52.604Z,20.92
2023-04-09T18:51:54.785Z,20.65
2023-04-09T18:56:57.593Z,20.70
2023-04-09T19:01:59.589Z,18.65
2023-04-09T19:07:01.773Z,17.92
2023-04-09T19:12:03.768Z,19.38
2023-04-09T19:17:05.677Z,20.90
2023-04-09T19:22:07.517Z,17.90
2023-04-09T19:27:10.069Z,20.90
2023-04-09T19:32:13.365Z,18.13
2023-04-09T19:37:16.486Z,20.25
2023-04-09T19:42:18.227Z,18.90
2023-04-09T19:47:19.975Z,19.20
2023-04-09T19:52:21.787Z,18.77
2023-04-09T19:57:23.530Z,21.52
2023-04-09T20:02:25.642Z,17.25
2023-04-09T20:07:27.352Z,18.35
2023-04-09T20:12:29.694Z,17.08
2023-04-09T20:17:32.040Z,17.98
2023-04-09T20:22:34.083Z,16.13
2023-04-09T20:27:35.687Z,16.92
2023-04-09T20:32:41.213Z,18.13
2023-04-09T20:37:51.801Z,18.98
2023-04-09T20:42:53.560Z,18.55
2023-04-09T20:47:56.235Z,18.90
2023-04-09T20:53:01.159Z,17.98
2023-04-09T20:58:04.265Z,34.03
2023-04-09T21:03:06.052Z,19.15
2023-04-09T21:08:08.271Z,17.25
2023-04-09T21:13:09.885Z,19.08
2023-04-09T21:18:11.591Z,19.38
2023-04-09T21:23:13.674Z,19.20
2023-04-09T21:28:15.582Z,42.33
2023-04-09T21:33:17.204Z,20.40
2023-04-09T21:38:19.255Z,19.60
2023-04-09T21:43:20.923Z,17.63
2023-04-09T21:48:23.085Z,19.95
2023-04-09T21:53:24.852Z,22.27
2023-04-09T21:58:26.562Z,19.35
2023-04-09T22:03:28.694Z,20.48
2023-04-09T22:08:30.504Z,19.38
2023-04-09T22:13:32.125Z,24.25
2023-04-09T22:18:37.099Z,18.50
2023-04-09T22:23:38.709Z,23.33
2023-04-09T22:28:40.348Z,18.10
2023-04-09T22:33:42.032Z,25.08
2023-04-09T22:38:43.697Z,17.30
2023-04-09T22:43:45.694Z,16.98
2023-04-09T22:48:47.553Z,19.50
2023-04-09T22:53:49.145Z,18.27
2023-04-09T22:58:51.035Z,16.15
2023-04-09T23:03:52.928Z,16.55
2023-04-09T23:08:54.853Z,17.00
2023-04-09T23:13:56.727Z,17.52
2023-04-09T23:18:58.364Z,17.50
2023-04-09T23:24:00.038Z,21.23
2023-04-09T23:29:01.807Z,21.27
2023-04-09T23:34:03.460Z,19.08
2023-04-09T23:39:05.461Z,14.38
2023-04-09T23:44:07.049Z,13.95
2023-04-09T23:49:08.649Z,14.90
2023-04-09T23:54:10.630Z,15.13
2023-04-09T23:59:12.418Z,13.70
